Time;durP1;ratioP1;P1;durP2;ratioP2;P2;SDS_P1;SDS_P2;PMS_P1;PMS_P2;Temp;Humidity;BMP_temperature;BMP_pressure;BME280_temperature;BME280_humidity;BME280_pressure;Samples;Min_cycle;Max_cycle;Signal;HPM_P1;HPM_P2
2022/09/12 00:00:32;;;;;;;19.23;13.50;;;;;;;12.97;100.00;101540.97;5074257;28;20036;-87
2022/09/12 00:02:58;;;;;;;19.77;13.20;;;;;;;12.90;100.00;101542.88;5074225;28;20051;-87
2022/09/12 00:05:24;;;;;;;18.38;13.43;;;;;;;12.89;100.00;101542.03;5074208;28;20107;-87
2022/09/12 00:07:50;;;;;;;20.13;14.02;;;;;;;12.88;100.00;101532.19;5073040;28;20075;-87
2022/09/12 00:10:16;;;;;;;18.70;14.47;;;;;;;12.87;100.00;101535.13;5073737;28;20059;-87
2022/09/12 00:12:41;;;;;;;25.83;13.53;;;;;;;12.83;100.00;101526.56;5075344;28;20620;-87
2022/09/12 00:15:11;;;;;;;21.60;13.83;;;;;;;12.82;100.00;101527.59;5074198;28;20113;-87
2022/09/12 00:17:39;;;;;;;22.53;14.93;;;;;;;12.84;100.00;101530.94;5073832;28;20285;-86
2022/09/12 00:20:07;;;;;;;20.90;13.55;;;;;;;12.84;100.00;101520.03;5085019;28;20129;-87
2022/09/12 00:22:33;;;;;;;26.52;14.43;;;;;;;12.80;100.00;101530.53;5077118;28;20063;-87
2022/09/12 00:25:02;;;;;;;18.95;13.23;;;;;;;12.78;100.00;101515.47;5060235;28;20036;-87
2022/09/12 00:27:28;;;;;;;18.52;13.30;;;;;;;12.77;100.00;101525.53;5060871;28;20119;-87
2022/09/12 00:29:53;;;;;;;18.77;12.43;;;;;;;12.76;100.00;101526.56;5076445;28;20181;-86
2022/09/12 00:32:19;;;;;;;17.27;11.90;;;;;;;12.74;100.00;101516.94;5076854;28;20032;-87
2022/09/12 00:34:45;;;;;;;21.42;13.43;;;;;;;12.71;100.00;101520.06;5094835;28;20520;-87
2022/09/12 00:37:13;;;;;;;20.87;13.90;;;;;;;12.70;100.00;101521.97;5076938;28;20051;-86
2022/09/12 00:39:39;;;;;;;18.30;13.38;;;;;;;12.62;100.00;101514.03;5060108;28;20035;-87
2022/09/12 00:42:04;;;;;;;18.65;13.52;;;;;;;12.60;100.00;101514.25;5076662;28;20050;-86
2022/09/12 00:44:30;;;;;;;16.87;12.83;;;;;;;12.61;100.00;101510.47;5077052;28;20024;-87
2022/09/12 00:47:09;;;;;;;21.10;13.60;;;;;;;12.54;100.00;101506.94;5077273;28;20114;-87
2022/09/12 00:50:10;;;;;;;18.52;13.65;;;;;;;12.55;100.00;101513.19;5076696;28;20028;-87
2022/09/12 00:52:49;;;;;;;20.55;12.82;;;;;;;12.53;100.00;101505.25;5034142;28;20401;-87
2022/09/12 00:55:16;;;;;;;17.92;12.68;;;;;;;12.52;100.00;101511.75;5077134;28;20110;-87
2022/09/12 00:57:58;;;;;;;20.13;13.43;;;;;;;12.50;100.00;101504.84;5076653;28;20032;-87
2022/09/12 01:00:25;;;;;;;21.27;13.57;;;;;;;12.46;100.00;101497.09;5095231;28;20107;-87
2022/09/12 01:03:03;;;;;;;18.23;13.85;;;;;;;12.45;100.00;101497.31;5076354;28;20063;-87
2022/09/12 01:05:33;;;;;;;18.95;13.95;;;;;;;12.43;100.00;101491.22;5076035;28;20063;-87
2022/09/12 01:08:01;;;;;;;22.17;14.63;;;;;;;12.40;100.00;101492.53;5094466;28;20036;-87
2022/09/12 01:10:26;;;;;;;21.47;13.17;;;;;;;12.33;100.00;101486.25;5076578;28;20058;-87
2022/09/12 01:12:52;;;;;;;20.13;13.10;;;;;;;12.32;100.00;101490.00;5075828;28;20024;-86
2022/09/12 01:15:21;;;;;;;17.83;12.63;;;;;;;12.29;100.00;101485.81;5094646;28;20493;-86
2022/09/12 01:18:03;;;;;;;18.90;12.97;;;;;;;12.32;100.00;101486.47;5076364;28;20119;-87
2022/09/12 01:21:10;;;;;;;20.85;13.55;;;;;;;12.32;100.00;101484.56;5076024;28;20147;-87
2022/09/12 01:24:00;;;;;;;19.60;13.82;;;;;;;12.34;100.00;101487.06;5076188;28;20089;-87
2022/09/12 01:26:36;;;;;;;23.40;14.30;;;;;;;12.34;100.00;101479.75;5076622;28;20063;-86
2022/09/12 01:29:25;;;;;;;20.15;13.68;;;;;;;12.31;100.00;101473.88;5076784;28;20458;-87
2022/09/12 01:32:19;;;;;;;21.77;13.93;;;;;;;12.29;100.00;101479.53;5093906;28;20024;-86
2022/09/12 01:35:27;;;;;;;22.38;14.13;;;;;;;12.28;100.00;101480.59;5076871;28;20123;-86
2022/09/12 01:38:10;;;;;;;21.98;13.75;;;;;;;12.25;100.00;101476.44;5076336;28;20111;-87
2022/09/12 01:40:51;;;;;;;26.15;15.45;;;;;;;12.25;100.00;101468.25;5094104;28;20028;-86
2022/09/12 01:43:30;;;;;;;20.35;14.30;;;;;;;12.23;100.00;101470.34;5075419;28;20077;-87
2022/09/12 01:46:06;;;;;;;21.47;14.83;;;;;;;12.21;100.00;101480.59;5094324;28;20115;-87
2022/09/12 01:48:45;;;;;;;23.05;15.40;;;;;;;12.20;100.00;101470.75;5093930;28;20167;-87
2022/09/12 01:51:13;;;;;;;22.70;15.10;;;;;;;12.21;100.00;101475.16;5093622;28;20060;-87
2022/09/12 01:53:45;;;;;;;24.48;15.60;;;;;;;12.19;100.00;101469.09;5076408;28;20093;-87
2022/09/12 01:56:25;;;;;;;28.08;16.35;;;;;;;12.22;100.00;101465.97;5075331;28;20055;-86
2022/09/12 01:59:15;;;;;;;25.87;16.83;;;;;;;12.21;100.00;101455.28;5075922;28;20028;-87
2022/09/12 02:01:51;;;;;;;26.10;16.40;;;;;;;12.20;100.00;101450.91;5093435;28;20370;-87
2022/09/12 02:04:19;;;;;;;28.35;17.83;;;;;;;12.19;100.00;101450.03;5076535;28;20126;-87
2022/09/12 02:06:54;;;;;;;28.00;17.95;;;;;;;12.19;100.00;101446.50;5075269;28;20027;-87
2022/09/12 02:09:34;;;;;;;26.55;17.92;;;;;;;12.12;100.00;101441.06;5075790;28;20028;-86
2022/09/12 02:12:02;;;;;;;30.77;17.47;;;;;;;12.11;100.00;101437.50;5075616;28;20035;-87
2022/09/12 02:14:31;;;;;;;30.88;18.60;;;;;;;12.13;100.00;101431.84;5075765;28;20416;-87
2022/09/12 02:17:09;;;;;;;31.35;18.45;;;;;;;12.11;100.00;101433.97;5076088;28;20032;-86
2022/09/12 02:19:44;;;;;;;29.08;17.58;;;;;;;12.08;100.00;101437.94;5075316;28;20056;-87
2022/09/12 02:22:16;;;;;;;29.70;17.42;;;;;;;12.07;100.00;101433.53;5075713;28;20185;-87
2022/09/12 02:24:45;;;;;;;27.73;16.53;;;;;;;12.04;100.00;101436.66;5093870;28;20024;-87
2022/09/12 02:27:15;;;;;;;26.77;17.60;;;;;;;12.04;100.00;101450.28;5094072;28;20039;-87
2022/09/12 02:29:43;;;;;;;29.42;18.02;;;;;;;12.03;100.00;101451.34;5093536;28;20036;-87
2022/09/12 02:32:26;;;;;;;27.38;17.10;;;;;;;12.03;100.00;101447.75;5075021;28;20126;-87
2022/09/12 02:35:19;;;;;;;26.60;16.58;;;;;;;12.02;100.00;101451.53;5075855;28;20028;-86
2022/09/12 02:37:54;;;;;;;26.87;16.53;;;;;;;12.00;100.00;101446.31;5093696;28;20059;-87
2022/09/12 02:40:24;;;;;;;26.63;17.08;;;;;;;12.02;100.00;101443.38;5075022;28;20043;-87
2022/09/12 02:42:50;;;;;;;25.83;17.17;;;;;;;12.02;100.00;101438.78;5093427;28;20028;-87
2022/09/12 02:45:16;;;;;;;24.92;16.77;;;;;;;12.03;100.00;101429.59;5074902;28;20501;-86
2022/09/12 02:47:47;;;;;;;29.77;18.88;;;;;;;12.06;100.00;101431.03;5074867;28;20016;-86
2022/09/12 02:50:16;;;;;;;22.97;16.13;;;;;;;12.00;100.00;101432.72;5075452;28;20024;-87
2022/09/12 02:52:43;;;;;;;26.08;17.42;;;;;;;12.00;100.00;101432.72;5075351;28;20359;-87
2022/09/12 02:55:10;;;;;;;27.15;17.48;;;;;;;12.03;100.00;101429.59;5096410;28;20044;-87
2022/09/12 02:57:37;;;;;;;28.42;18.45;;;;;;;12.03;100.00;101426.84;5079212;28;20615;-87
2022/09/12 03:00:03;;;;;;;28.20;18.05;;;;;;;12.01;100.00;101426.22;5096936;28;20024;-87
2022/09/12 03:02:44;;;;;;;27.83;17.57;;;;;;;11.99;100.00;101424.75;5078945;28;20118;-87
2022/09/12 03:05:32;;;;;;;30.85;17.83;;;;;;;11.99;100.00;101417.44;5079582;28;20034;-87
2022/09/12 03:08:25;;;;;;;25.42;17.42;;;;;;;12.00;100.00;101419.13;5079510;28;20122;-87
2022/09/12 03:11:19;;;;;;;30.08;17.10;;;;;;;11.96;100.00;101412.44;5079137;28;20039;-87
2022/09/12 03:13:51;;;;;;;28.13;17.00;;;;;;;11.99;100.00;101414.72;5078583;28;20382;-87
2022/09/12 03:16:30;;;;;;;25.77;17.23;;;;;;;12.00;100.00;101421.84;5078851;28;20382;-87
2022/09/12 03:19:14;;;;;;;27.40;17.23;;;;;;;11.99;100.00;101416.59;5096666;28;20123;-87
2022/09/12 03:21:46;;;;;;;29.30;17.83;;;;;;;11.98;100.00;101406.78;5078668;28;20031;-87
2022/09/12 03:24:15;;;;;;;29.50;17.23;;;;;;;11.97;100.00;101407.81;5078043;28;20030;-87
2022/09/12 03:26:49;;;;;;;27.52;17.77;;;;;;;11.96;100.00;101409.72;5078526;28;20036;-87
2022/09/12 03:29:17;;;;;;;29.80;18.40;;;;;;;11.96;100.00;101409.72;5078853;28;20055;-87
2022/09/12 03:32:09;;;;;;;24.70;16.55;;;;;;;11.95;100.00;101408.03;5096383;28;20036;-87
2022/09/12 03:34:34;;;;;;;28.58;17.98;;;;;;;11.94;100.00;101403.63;5074112;28;20476;-87
2022/09/12 03:37:02;;;;;;;31.53;19.23;;;;;;;11.97;100.00;101405.91;5078419;28;20088;-87
2022/09/12 03:39:28;;;;;;;31.40;18.90;;;;;;;11.95;100.00;101404.47;5095860;28;20103;-87
2022/09/12 03:41:55;;;;;;;30.03;17.30;;;;;;;11.96;100.00;101414.28;5061049;28;20075;-87
2022/09/12 03:44:23;;;;;;;32.07;19.23;;;;;;;11.91;100.00;101401.31;5077648;28;20720;-87
2022/09/12 03:46:49;;;;;;;30.60;18.45;;;;;;;11.91;100.00;101409.47;5078246;28;20036;-87
2022/09/12 03:49:14;;;;;;;30.92;18.77;;;;;;;11.90;100.00;101405.91;5077593;28;20077;-87
2022/09/12 03:51:41;;;;;;;31.00;19.30;;;;;;;11.91;100.00;101398.59;5095966;28;20032;-87
2022/09/12 03:54:07;;;;;;;31.50;20.17;;;;;;;11.94;100.00;101403.63;5077436;28;20031;-87
2022/09/12 03:56:34;;;;;;;30.73;18.13;;;;;;;11.93;100.00;101399.25;5096241;28;20049;-86
2022/09/12 03:58:59;;;;;;;35.22;18.17;;;;;;;11.93;100.00;101399.25;5078396;28;20062;-87
2022/09/12 04:01:24;;;;;;;31.30;18.93;;;;;;;11.91;100.00;101388.56;5077939;28;20024;-86
2022/09/12 04:03:51;;;;;;;34.00;18.90;;;;;;;11.93;100.00;101391.94;5077927;28;20132;-87
2022/09/12 04:06:20;;;;;;;31.03;18.70;;;;;;;11.92;100.00;101390.22;5060490;28;20116;-86
2022/09/12 04:08:57;;;;;;;27.75;17.75;;;;;;;11.92;100.00;101378.50;5077426;28;20489;-86
2022/09/12 04:11:22;;;;;;;34.40;18.85;;;;;;;11.94;100.00;101387.31;5077752;28;20488;-87
2022/09/12 04:13:49;;;;;;;32.07;19.17;;;;;;;11.94;100.00;101384.59;5060764;28;20036;-86
2022/09/12 04:16:15;;;;;;;31.35;18.40;;;;;;;11.97;100.00;101381.44;5095264;28;20127;-87
2022/09/12 04:18:41;;;;;;;30.33;19.08;;;;;;;12.01;100.00;101385.41;5077478;28;20488;-87
2022/09/12 04:21:18;;;;;;;32.40;18.50;;;;;;;11.98;100.00;101374.16;5076874;28;20083;-87
2022/09/12 04:23:46;;;;;;;29.67;17.38;;;;;;;12.00;100.00;101374.75;5095297;28;20042;-87
2022/09/12 04:26:13;;;;;;;35.33;20.20;;;;;;;12.01;100.00;101374.53;5077600;28;20036;-87
2022/09/12 04:28:39;;;;;;;33.08;19.85;;;;;;;12.05;100.00;101373.06;5076825;28;20051;-87
2022/09/12 04:31:11;;;;;;;35.30;19.50;;;;;;;12.08;100.00;101369.09;5076989;28;20070;-86
2022/09/12 04:33:36;;;;;;;33.10;19.33;;;;;;;12.07;100.00;101378.31;5095229;28;20024;-87
2022/09/12 04:36:13;;;;;;;33.73;19.50;;;;;;;12.07;100.00;101370.16;5060308;28;20032;-87
2022/09/12 04:38:38;;;;;;;32.25;19.23;;;;;;;12.06;100.00;101371.19;5077699;28;20020;-87
2022/09/12 04:41:15;;;;;;;35.37;19.17;;;;;;;12.08;100.00;101363.66;5076763;28;20055;-86
2022/09/12 04:43:42;;;;;;;34.05;19.67;;;;;;;12.10;100.00;101358.84;5094680;28;20414;-86
2022/09/12 04:46:12;;;;;;;35.92;20.15;;;;;;;12.16;100.00;101357.16;5076621;28;20492;-87
2022/09/12 04:48:38;;;;;;;36.53;20.60;;;;;;;12.14;100.00;101349.22;5094887;28;20051;-87
2022/09/12 04:51:09;;;;;;;40.40;22.23;;;;;;;12.16;100.00;101360.69;5094856;28;20036;-87
2022/09/12 04:53:37;;;;;;;37.00;21.07;;;;;;;12.16;100.00;101360.69;5060644;28;20047;-87
2022/09/12 04:56:05;;;;;;;41.67;21.70;;;;;;;12.17;100.00;101364.28;5043730;28;20028;-87
2022/09/12 04:58:32;;;;;;;36.70;21.25;;;;;;;12.18;100.00;101364.06;5059751;28;20032;-87
2022/09/12 05:01:08;;;;;;;40.72;20.98;;;;;;;12.16;100.00;101357.16;5094540;28;20028;-87
2022/09/12 05:03:37;;;;;;;34.45;20.15;;;;;;;12.13;100.00;101357.59;5076742;28;20093;-87
2022/09/12 05:06:05;;;;;;;34.97;20.90;;;;;;;12.13;100.00;101368.47;5095087;28;20043;-87
2022/09/12 05:08:30;;;;;;;33.22;20.13;;;;;;;12.13;100.00;101363.84;5076437;28;20066;-87
2022/09/12 05:10:56;;;;;;;41.40;21.73;;;;;;;12.15;100.00;101369.06;5059974;28;20064;-86
2022/09/12 05:13:22;;;;;;;34.73;20.73;;;;;;;12.14;100.00;101367.41;5075959;28;20793;-87
2022/09/12 05:15:54;;;;;;;40.63;21.77;;;;;;;12.19;100.00;101365.72;5076194;28;20397;-87
2022/09/12 05:18:20;;;;;;;35.90;20.85;;;;;;;12.21;100.00;101368.22;5076218;28;20028;-87
2022/09/12 05:20:45;;;;;;;42.13;21.53;;;;;;;12.24;100.00;101373.25;5075936;28;20047;-86
2022/09/12 05:23:14;;;;;;;40.05;21.27;;;;;;;12.28;100.00;101377.19;5094574;28;20034;-84
2022/09/12 05:25:53;;;;;;;35.53;20.52;;;;;;;12.32;100.00;101373.00;5076210;28;20060;-87
2022/09/12 05:28:20;;;;;;;35.97;20.60;;;;;;;12.36;100.00;101371.53;5075972;28;20122;-86
2022/09/12 05:30:46;;;;;;;37.80;21.80;;;;;;;12.38;100.00;101374.03;5075651;28;20029;-85
2022/09/12 05:33:12;;;;;;;40.30;20.95;;;;;;;12.44;100.00;101381.34;5075902;28;20050;-85
2022/09/12 05:35:39;;;;;;;36.78;20.67;;;;;;;12.48;100.00;101371.69;5059373;28;20488;-87
2022/09/12 05:38:05;;;;;;;40.47;22.00;;;;;;;12.50;100.00;101372.31;5075922;28;20054;-85
2022/09/12 05:40:31;;;;;;;36.33;21.33;;;;;;;12.54;100.00;101365.38;5042433;28;20362;-87
2022/09/12 05:42:57;;;;;;;40.45;21.35;;;;;;;12.58;100.00;101365.81;5058769;28;20039;-86
2022/09/12 05:45:22;;;;;;;36.20;21.63;;;;;;;12.63;100.00;101369.53;5058966;28;20036;-85
2022/09/12 05:47:50;;;;;;;36.00;20.98;;;;;;;12.70;100.00;101371.41;5042053;28;20040;-85
2022/09/12 05:50:16;;;;;;;37.53;22.30;;;;;;;12.73;100.00;101379.13;5076318;28;20368;-86
2022/09/12 05:52:41;;;;;;;43.20;22.75;;;;;;;12.76;100.00;101381.44;5075814;28;20118;-86
2022/09/12 05:55:07;;;;;;;36.33;21.20;;;;;;;12.77;100.00;101380.34;5059108;28;20538;-85
2022/09/12 05:57:33;;;;;;;36.57;21.43;;;;;;;12.80;100.00;101377.22;5059062;28;20489;-86
2022/09/12 05:59:58;;;;;;;40.47;21.58;;;;;;;12.86;100.00;101384.50;5094740;28;20032;-87
2022/09/12 06:02:24;;;;;;;37.83;21.77;;;;;;;12.90;100.00;101383.03;5060986;28;20028;-87
2022/09/12 06:04:49;;;;;;;39.60;22.77;;;;;;;12.96;100.00;101392.19;5075985;28;20473;-87
2022/09/12 06:07:15;;;;;;;34.08;20.73;;;;;;;13.00;100.00;101393.44;5075979;28;20024;-87
2022/09/12 06:09:41;;;;;;;34.70;20.63;;;;;;;13.05;100.00;101399.09;5075558;28;20489;-83
2022/09/12 06:12:07;;;;;;;36.13;21.65;;;;;;;13.05;100.00;101392.78;5075245;28;20122;-86
2022/09/12 06:14:33;;;;;;;37.73;21.40;;;;;;;13.04;100.00;101394.69;5058711;28;20378;-85
2022/09/12 06:17:06;;;;;;;37.22;20.00;;;;;;;13.05;100.00;101392.78;5075155;28;20107;-86
2022/09/12 06:19:31;;;;;;;34.65;20.70;;;;;;;13.04;100.00;101388.41;5057718;28;20071;-86
2022/09/12 06:21:57;;;;;;;39.83;20.83;;;;;;;13.06;100.00;101386.28;5074486;28;20032;-86
2022/09/12 06:24:23;;;;;;;34.55;20.88;;;;;;;13.08;100.00;101387.75;5075094;28;20044;-85
2022/09/12 06:26:51;;;;;;;34.43;20.13;;;;;;;13.14;100.00;101391.50;5058724;28;20036;-86
2022/09/12 06:29:18;;;;;;;35.70;20.73;;;;;;;13.15;100.00;101383.09;5077455;28;20537;-85
2022/09/12 06:31:43;;;;;;;32.53;19.17;;;;;;;13.22;100.00;101372.13;5062240;28;20111;-85
2022/09/12 06:34:12;;;;;;;32.83;19.10;;;;;;;13.29;100.00;101380.28;5078749;28;20055;-87
2022/09/12 06:36:47;;;;;;;35.42;18.92;;;;;;;13.36;100.00;101380.25;5078615;28;20024;-85
2022/09/12 06:39:17;;;;;;;30.83;19.33;;;;;;;13.39;100.00;101374.34;5079289;28;20027;-86
2022/09/12 06:41:43;;;;;;;30.42;18.42;;;;;;;13.45;100.00;101379.75;5078597;28;20546;-85
2022/09/12 06:44:12;;;;;;;28.63;18.50;;;;;;;13.53;100.00;101383.28;5096866;28;20027;-86
2022/09/12 06:46:38;;;;;;;27.05;17.98;;;;;;;13.58;100.00;101387.00;5078755;28;20204;-87
2022/09/12 06:49:04;;;;;;;27.20;17.43;;;;;;;13.65;100.00;101379.59;5078738;28;20059;-86
2022/09/12 06:51:29;;;;;;;29.10;17.38;;;;;;;13.71;100.00;101377.03;5078751;28;20027;-86
2022/09/12 06:53:56;;;;;;;28.87;18.07;;;;;;;13.76;100.00;101377.19;5096367;28;20035;-86
2022/09/12 06:56:25;;;;;;;25.38;17.13;;;;;;;13.78;100.00;101378.63;5078097;28;20028;-86
2022/09/12 06:58:52;;;;;;;26.75;17.05;;;;;;;13.81;100.00;101386.38;5096506;28;20024;-85
2022/09/12 07:01:20;;;;;;;26.80;17.48;;;;;;;13.85;100.00;101378.59;5078755;28;20073;-86
2022/09/12 07:03:48;;;;;;;26.85;17.77;;;;;;;13.85;100.00;101375.88;5061952;28;20130;-86
2022/09/12 07:06:17;;;;;;;25.63;17.93;;;;;;;13.86;100.00;101382.97;5097301;28;20107;-86
2022/09/12 07:08:45;;;;;;;30.73;18.60;;;;;;;13.86;100.00;101374.78;5078309;28;20120;-87
2022/09/12 07:11:22;;;;;;;26.95;17.17;;;;;;;13.88;100.00;101377.28;5078311;28;20056;-86
2022/09/12 07:13:50;;;;;;;27.20;16.83;;;;;;;13.91;100.00;101388.59;5079075;28;20081;-86
2022/09/12 07:16:17;;;;;;;26.55;18.13;;;;;;;13.94;100.00;101382.69;5078222;28;20043;-86
2022/09/12 07:18:42;;;;;;;29.53;19.07;;;;;;;13.99;100.00;101382.84;5078190;28;20115;-86
2022/09/12 07:21:14;;;;;;;28.63;18.35;;;;;;;14.02;100.00;101373.38;5096046;28;20089;-87
2022/09/12 07:23:40;;;;;;;27.63;18.08;;;;;;;14.10;100.00;101374.97;5078784;28;20031;-86
2022/09/12 07:26:09;;;;;;;26.33;17.20;;;;;;;14.16;100.00;101374.91;5077738;28;20085;-87
2022/09/12 07:28:35;;;;;;;26.97;18.27;;;;;;;14.22;100.00;101365.00;5062078;28;20032;-86
2022/09/12 07:31:16;;;;;;;27.90;17.60;;;;;;;14.27;100.00;101362.41;5078109;28;20035;-83
2022/09/12 07:33:42;;;;;;;28.27;17.92;;;;;;;14.32;100.00;101368.03;5078339;28;20028;-87
2022/09/12 07:36:11;;;;;;;31.13;17.85;;;;;;;14.39;100.00;101370.66;5061317;28;20044;-86
2022/09/12 07:38:40;;;;;;;28.13;17.83;;;;;;;14.45;100.00;101364.28;5078273;28;20028;-86
2022/09/12 07:41:19;;;;;;;25.47;17.70;;;;;;;14.52;100.00;101369.66;5076532;28;20084;-86
2022/09/12 07:43:45;;;;;;;29.75;18.40;;;;;;;14.58;100.00;101371.47;5095861;28;20093;-86
2022/09/12 07:46:11;;;;;;;28.23;17.95;;;;;;;14.65;100.00;101376.91;5061395;28;20477;-86
2022/09/12 07:48:38;;;;;;;29.07;18.77;;;;;;;14.69;100.00;101384.41;5096883;28;20043;-86
2022/09/12 07:51:06;;;;;;;28.47;17.67;;;;;;;14.76;100.00;101378.84;5077994;28;20778;-86
2022/09/12 07:53:37;;;;;;;28.90;17.90;;;;;;;14.82;100.00;101380.66;5077613;28;20024;-87
2022/09/12 07:56:04;;;;;;;25.15;17.08;;;;;;;14.90;100.00;101383.06;5077942;28;20043;-88
2022/09/12 07:58:30;;;;;;;28.35;18.23;;;;;;;14.99;100.00;101385.47;5077711;28;20429;-87
2022/09/12 08:01:08;;;;;;;31.10;18.38;;;;;;;15.10;100.00;101390.13;5077593;28;20051;-88
2022/09/12 08:03:36;;;;;;;26.17;17.47;;;;;;;15.20;100.00;101384.94;5077447;28;20028;-89
2022/09/12 08:06:04;;;;;;;24.77;17.08;;;;;;;15.30;100.00;101380.84;5061414;28;20024;-88
2022/09/12 08:08:29;;;;;;;26.83;17.05;;;;;;;15.37;100.00;101368.72;5077170;28;20122;-88
2022/09/12 08:11:00;;;;;;;29.53;16.93;;;;;;;15.51;100.00;101379.44;5078436;28;20530;-88
2022/09/12 08:13:30;;;;;;;24.67;16.77;;;;;;;15.61;100.00;101376.94;5095224;28;20063;-87
2022/09/12 08:16:00;;;;;;;25.27;15.82;;;;;;;15.71;100.00;101385.41;5061227;28;20028;-88
2022/09/12 08:18:27;;;;;;;25.33;16.45;;;;;;;15.82;100.00;101380.22;5077221;28;20081;-88
2022/09/12 08:21:08;;;;;;;22.60;16.33;;;;;;;15.90;100.00;101382.56;5076623;28;20448;-88
2022/09/12 08:23:34;;;;;;;24.33;15.82;;;;;;;15.96;100.00;101385.22;5095633;28;20032;-88
2022/09/12 08:26:04;;;;;;;23.13;16.13;;;;;;;16.05;100.00;101388.41;5076974;28;20020;-87
2022/09/12 08:28:31;;;;;;;24.43;15.87;;;;;;;16.16;100.00;101384.00;5077136;28;20038;-88
2022/09/12 08:31:01;;;;;;;22.85;16.45;;;;;;;16.25;100.00;101400.88;5076684;28;20106;-87
2022/09/12 08:33:32;;;;;;;24.90;16.90;;;;;;;16.33;99.87;101391.47;5076853;28;20024;-88
2022/09/12 08:36:09;;;;;;;27.63;17.75;;;;;;;16.42;99.88;101401.81;5077930;28;20031;-87
2022/09/12 08:38:36;;;;;;;23.42;17.15;;;;;;;16.49;99.32;101393.47;5094719;28;20028;-88
2022/09/12 08:41:29;;;;;;;23.67;17.70;;;;;;;16.55;98.98;101392.50;5095540;28;20110;-87
2022/09/12 08:43:57;;;;;;;22.42;17.30;;;;;;;16.65;98.45;101395.47;5094911;28;20096;-87
2022/09/12 08:46:30;;;;;;;27.42;16.95;;;;;;;16.71;98.53;101393.66;5095104;28;20028;-88
2022/09/12 08:48:59;;;;;;;20.92;16.58;;;;;;;16.84;98.52;101396.13;5077371;28;20084;-87
2022/09/12 08:51:28;;;;;;;24.92;17.52;;;;;;;16.97;99.23;101389.53;5094077;28;20034;-87
2022/09/12 08:53:55;;;;;;;23.13;16.63;;;;;;;17.10;97.90;101393.06;5076494;28;20055;-88
2022/09/12 08:56:22;;;;;;;22.30;16.33;;;;;;;17.20;97.28;101385.03;5059740;28;20040;-87
2022/09/12 08:58:48;;;;;;;23.08;16.08;;;;;;;17.30;96.19;101381.59;5094448;28;20027;-88
2022/09/12 09:01:33;;;;;;;25.67;16.23;;;;;;;17.36;95.46;101386.94;5059337;28;20090;-88
2022/09/12 09:04:14;;;;;;;21.40;15.35;;;;;;;17.47;95.23;101378.91;5075274;28;20398;-88
2022/09/12 09:07:01;;;;;;;18.38;14.25;;;;;;;17.59;95.02;101374.16;5094975;28;20032;-88
2022/09/12 09:09:29;;;;;;;17.00;13.32;;;;;;;17.69;92.71;101374.31;5094126;28;20032;-88
2022/09/12 09:11:57;;;;;;;17.33;11.63;;;;;;;17.81;92.33;101376.97;5076198;28;20086;-88
2022/09/12 09:14:50;;;;;;;16.77;10.67;;;;;;;17.95;91.51;101371.16;5076241;28;20028;-88
2022/09/12 09:17:33;;;;;;;14.73;10.65;;;;;;;18.09;90.10;101366.16;5075985;28;20040;-87
2022/09/12 09:20:46;;;;;;;14.70;10.25;;;;;;;18.23;88.39;101370.16;5093842;28;20052;-87
2022/09/12 09:23:39;;;;;;;15.73;10.40;;;;;;;18.36;88.96;101367.03;5058426;28;20039;-88
2022/09/12 09:26:21;;;;;;;12.02;9.40;;;;;;;18.44;85.05;101362.19;5068708;28;20032;-94
2022/09/12 09:29:11;;;;;;;12.70;9.10;;;;;;;18.55;85.16;101364.00;5076344;28;20027;-90
2022/09/12 09:31:38;;;;;;;15.65;10.63;;;;;;;18.67;84.23;101361.09;5065763;28;20036;-90
2022/09/12 09:34:23;;;;;;;14.85;11.82;;;;;;;18.76;84.55;101362.28;5076456;28;20106;-90
2022/09/12 09:36:54;;;;;;;15.68;10.15;;;;;;;18.91;84.01;101356.16;5076392;28;20035;-90
2022/09/12 09:39:49;;;;;;;;;;;;;;;;;;;;;
2022/09/12 09:42:37;;;;;;;12.77;9.20;;;;;;;19.24;83.00;101362.56;5095731;28;20042;-90
2022/09/12 09:45:14;;;;;;;15.07;9.43;;;;;;;19.38;81.94;101357.44;5076372;28;20039;-90
2022/09/12 09:47:39;;;;;;;13.55;9.15;;;;;;;19.55;79.62;101352.63;5075799;28;20385;-90
2022/09/12 09:50:08;;;;;;;12.33;8.70;;;;;;;19.72;78.33;101354.38;5059604;28;20032;-90
2022/09/12 09:52:35;;;;;;;11.60;8.73;;;;;;;19.82;77.22;101348.97;5059883;28;20032;-90
2022/09/12 09:55:03;;;;;;;10.55;8.57;;;;;;;19.95;75.62;101340.25;5093939;28;20114;-90
2022/09/12 09:57:35;;;;;;;11.68;8.23;;;;;;;19.98;74.15;101331.44;5076025;28;20124;-90
2022/09/12 10:00:30;;;;;;;9.97;7.50;;;;;;;20.08;75.55;101336.19;5075679;28;20043;-90
2022/09/12 10:03:27;;;;;;;14.50;8.20;;;;;;;20.27;75.87;101322.78;5093561;28;20032;-90
2022/09/12 10:06:01;;;;;;;10.15;7.18;;;;;;;20.44;72.89;101321.75;5076009;28;20028;-91
2022/09/12 10:08:39;;;;;;;10.95;7.38;;;;;;;20.58;72.19;101314.63;5076372;28;20035;-90
2022/09/12 10:11:27;;;;;;;10.65;7.70;;;;;;;20.68;72.87;101317.44;5075916;28;20111;-90
2022/09/12 10:14:08;;;;;;;10.27;8.20;;;;;;;20.72;69.34;101305.88;5093641;28;20024;-91
2022/09/12 10:16:52;;;;;;;10.82;7.78;;;;;;;20.83;71.71;101305.63;5076220;28;20035;-90
2022/09/12 10:19:31;;;;;;;10.00;6.80;;;;;;;21.04;69.95;101302.88;5059254;28;20503;-91
2022/09/12 10:21:57;;;;;;;9.35;7.45;;;;;;;21.27;68.02;101304.25;5076021;28;20054;-90
2022/09/12 10:24:31;;;;;;;10.53;7.53;;;;;;;21.50;69.24;101304.78;5075791;28;20032;-90
2022/09/12 10:27:07;;;;;;;14.93;7.53;;;;;;;21.63;67.41;101295.13;5075689;28;20055;-90
2022/09/12 10:29:42;;;;;;;10.88;6.55;;;;;;;21.52;64.79;101291.56;5075490;28;20023;-90
2022/09/12 10:32:08;;;;;;;10.57;7.20;;;;;;;21.63;66.04;101287.69;5075715;28;20039;-90
2022/09/12 10:34:45;;;;;;;8.30;6.27;;;;;;;21.82;65.69;101281.53;5042505;28;20028;-90
2022/09/12 10:37:22;;;;;;;10.75;6.07;;;;;;;21.90;65.99;101280.97;5075897;28;20504;-90
2022/09/12 10:40:19;;;;;;;8.00;6.05;;;;;;;22.07;67.17;101275.09;5075842;28;20111;-90
2022/09/12 10:42:57;;;;;;;9.13;6.55;;;;;;;22.13;64.04;101274.00;5075517;28;20032;-90
2022/09/12 10:45:29;;;;;;;9.38;6.32;;;;;;;22.36;63.30;101271.69;5075253;28;20027;-90
2022/09/12 10:47:59;;;;;;;6.37;5.17;;;;;;;22.54;60.52;101267.44;5075859;28;20055;-90
2022/09/12 10:50:36;;;;;;;8.60;5.45;;;;;;;22.71;62.39;101267.06;5075530;28;20036;-90
2022/09/12 10:53:32;;;;;;;10.02;5.22;;;;;;;23.00;63.12;101264.34;5075375;28;20024;-90
2022/09/12 10:56:11;;;;;;;10.13;5.10;;;;;;;23.37;60.39;101254.63;5093227;28;20032;-90
2022/09/12 10:58:54;;;;;;;4.85;4.22;;;;;;;23.75;59.32;101252.00;5075559;28;20028;-90
2022/09/12 11:01:37;;;;;;;5.23;3.80;;;;;;;24.17;58.94;101255.94;5075946;28;20059;-90
2022/09/12 11:04:25;;;;;;;8.82;4.72;;;;;;;24.48;57.81;101249.16;5075736;28;20024;-91
2022/09/12 11:07:28;;;;;;;4.72;4.22;;;;;;;24.83;55.89;101244.19;5075407;28;20119;-90
2022/09/12 11:10:26;;;;;;;4.30;3.90;;;;;;;25.84;53.59;101230.72;5076317;28;20039;-90
2022/09/12 11:13:23;;;;;;;6.38;3.55;;;;;;;27.94;49.87;101237.81;5075649;28;20032;-90
2022/09/12 11:16:21;;;;;;;6.47;4.67;;;;;;;31.05;41.21;101244.09;5077980;28;20127;-91
2022/09/12 11:19:32;;;;;;;4.55;3.42;;;;;;;34.29;35.85;101233.00;5079200;28;20032;-91
2022/09/12 11:22:10;;;;;;;5.70;3.50;;;;;;;36.29;31.89;101232.16;5040494;28;20059;-90
2022/09/12 11:25:02;;;;;;;5.88;3.83;;;;;;;37.77;30.20;101219.53;5079125;28;20047;-91
2022/09/12 11:28:16;;;;;;;;;;;;;;;;;;;;;
2022/09/12 11:31:23;;;;;;;4.17;3.77;;;;;;;40.21;27.10;101207.00;5074401;28;20046;-92
2022/09/12 11:33:51;;;;;;;3.78;3.47;;;;;;;40.38;22.41;101201.63;5080317;28;20463;-92